Selma, Indiana
Current Conditions -  °F | °C
As of 10:53 AM on Thursday 23 Oct 2014 (Local Time) from KMIE Reporting Station
Clear Clear  
Wind Chill: 50°   Ceiling: Unl
Heat Index: 50°   Visibility: 10mi
Dew Point: 41°   Wind: 5mph
Humidity: 71%   Direction: 220°SW
Pressure: 30.26"   Gusts: NA
Location:  40.19°N, 85.27°W
Report Text: KMIE 231453Z 22004KT 10SM CLR 10/05 A3026 RMK AO2 SLP247 I3001 T01000050 53001
Loading
Personal Weather Stations






























Interactive Weather Map
Tropical Storm Tracking
New forecast layout! Learn more

10-Day Weather Forecast

Advertisements
Track Severe Weather on mobile